createdAt,value
2023-05-21T00:00:48.680Z,28.78
2023-05-21T00:01:50.525Z,28.76
2023-05-21T00:02:52.554Z,28.78
2023-05-21T00:03:54.543Z,28.77
2023-05-21T00:04:56.383Z,28.78
2023-05-21T00:05:58.789Z,28.78
2023-05-21T00:07:00.927Z,28.76
2023-05-21T00:08:02.773Z,28.77
2023-05-21T00:09:06.452Z,28.78
2023-05-21T00:10:09.031Z,28.76
2023-05-21T00:11:11.163Z,28.75
2023-05-21T00:12:13.262Z,28.78
2023-05-21T00:13:15.331Z,28.76
2023-05-21T00:14:17.328Z,28.75
2023-05-21T00:15:19.356Z,28.75
2023-05-21T00:16:22.910Z,28.75
2023-05-21T00:17:26.076Z,28.76
2023-05-21T00:18:28.412Z,28.75
2023-05-21T00:19:33.633Z,28.75
2023-05-21T00:20:35.626Z,28.76
2023-05-21T00:21:38.186Z,28.75
2023-05-21T00:22:42.550Z,28.74
2023-05-21T00:23:45.518Z,28.74
2023-05-21T00:24:47.410Z,28.75
2023-05-21T00:25:50.516Z,28.74
2023-05-21T00:26:52.402Z,28.75
2023-05-21T00:27:55.589Z,28.75
2023-05-21T00:28:57.677Z,28.75
2023-05-21T00:29:59.577Z,28.74
2023-05-21T00:31:01.831Z,28.73
2023-05-21T00:32:04.288Z,28.73
2023-05-21T00:33:06.278Z,28.72
2023-05-21T00:34:08.207Z,28.75
2023-05-21T00:35:10.128Z,28.71
2023-05-21T00:36:14.430Z,28.73
2023-05-21T00:37:16.546Z,28.71
2023-05-21T00:38:18.815Z,28.72
2023-05-21T00:39:21.062Z,28.72
2023-05-21T00:40:23.047Z,28.71
2023-05-21T00:41:26.225Z,28.72
2023-05-21T00:42:30.934Z,28.72
2023-05-21T00:43:33.119Z,28.73
2023-05-21T00:44:35.534Z,28.69
2023-05-21T00:45:38.068Z,28.70
2023-05-21T00:46:40.928Z,28.71
2023-05-21T00:47:45.071Z,28.70
2023-05-21T00:48:48.714Z,28.70
2023-05-21T00:49:54.255Z,28.69
2023-05-21T00:50:56.718Z,28.70
2023-05-21T00:52:01.633Z,28.71
2023-05-21T00:53:03.916Z,28.68
2023-05-21T00:54:06.144Z,28.69
2023-05-21T00:55:09.720Z,28.68
2023-05-21T00:56:11.826Z,28.68
2023-05-21T00:57:14.598Z,28.69
2023-05-21T00:58:18.406Z,28.68
2023-05-21T00:59:20.605Z,28.69
2023-05-21T01:00:24.720Z,28.69
2023-05-21T01:01:27.828Z,28.67
2023-05-21T01:02:33.164Z,28.67
2023-05-21T01:03:38.652Z,28.68
2023-05-21T01:04:40.762Z,28.67
2023-05-21T01:05:45.241Z,28.68
2023-05-21T01:06:47.173Z,28.67
2023-05-21T01:07:49.141Z,28.68
2023-05-21T01:08:51.111Z,28.66
2023-05-21T01:09:54.243Z,28.66
2023-05-21T01:10:58.526Z,28.66
2023-05-21T01:12:01.056Z,28.65
2023-05-21T01:13:03.220Z,28.65
2023-05-21T01:14:09.362Z,28.66
2023-05-21T01:15:12.119Z,28.64
2023-05-21T01:16:14.255Z,28.65
2023-05-21T01:17:16.951Z,28.64
2023-05-21T01:18:20.183Z,28.66
2023-05-21T01:19:24.223Z,28.65
2023-05-21T01:20:28.566Z,28.65
2023-05-21T01:21:31.071Z,28.66
2023-05-21T01:22:35.702Z,28.67
2023-05-21T01:23:37.549Z,28.67
2023-05-21T01:24:39.444Z,28.67
2023-05-21T01:25:42.345Z,28.67
2023-05-21T01:26:46.550Z,28.65
2023-05-21T01:27:49.435Z,28.64
2023-05-21T01:28:51.668Z,28.67
2023-05-21T01:29:53.697Z,28.67
2023-05-21T01:31:02.875Z,28.64
2023-05-21T01:32:34.766Z,28.69
2023-05-21T01:33:49.341Z,28.67
2023-05-21T01:35:14.472Z,28.66
2023-05-21T01:36:24.417Z,28.65
2023-05-21T01:37:40.553Z,28.66
2023-05-21T01:38:57.591Z,28.64
2023-05-21T01:40:10.696Z,28.64
2023-05-21T01:41:17.030Z,28.62
2023-05-21T01:42:23.695Z,28.62
2023-05-21T01:43:30.018Z,28.62
2023-05-21T01:44:34.337Z,28.62
2023-05-21T01:45:42.147Z,28.62
2023-05-21T01:46:44.051Z,28.62
2023-05-21T01:47:50.451Z,28.61
2023-05-21T01:48:56.305Z,28.61
2023-05-21T01:50:01.701Z,28.60
2023-05-21T01:51:06.565Z,28.59
2023-05-21T01:52:09.351Z,28.58
2023-05-21T01:53:11.580Z,28.60
2023-05-21T01:54:14.226Z,28.59
2023-05-21T01:55:16.089Z,28.60
2023-05-21T01:56:18.158Z,28.60
2023-05-21T01:57:21.566Z,28.61
2023-05-21T01:58:24.202Z,28.58
2023-05-21T01:59:26.210Z,28.57
2023-05-21T02:00:32.599Z,28.59
2023-05-21T02:01:34.997Z,28.58
2023-05-21T02:02:37.018Z,28.57
2023-05-21T02:03:38.971Z,28.57
2023-05-21T02:04:41.491Z,28.57
2023-05-21T02:05:43.764Z,28.58
2023-05-21T02:06:45.753Z,28.58
2023-05-21T02:07:48.284Z,28.57
2023-05-21T02:08:50.269Z,28.57
2023-05-21T02:09:52.156Z,28.57
2023-05-21T02:10:54.083Z,28.57
2023-05-21T02:11:56.605Z,28.58
2023-05-21T02:12:59.339Z,28.57
2023-05-21T02:14:01.371Z,28.57
2023-05-21T02:15:03.994Z,28.55
2023-05-21T02:16:10.176Z,28.57
2023-05-21T02:17:12.037Z,28.56
2023-05-21T02:18:18.495Z,28.56
2023-05-21T02:19:20.707Z,28.57
2023-05-21T02:20:22.939Z,28.55
2023-05-21T02:21:24.787Z,28.56
2023-05-21T02:22:26.707Z,28.55
2023-05-21T02:23:28.613Z,28.55
2023-05-21T02:24:31.419Z,28.56
2023-05-21T02:25:33.933Z,28.55
2023-05-21T02:26:36.193Z,28.54
2023-05-21T02:27:40.709Z,28.54
2023-05-21T02:28:42.598Z,28.55
2023-05-21T02:29:44.593Z,28.55
2023-05-21T02:30:46.482Z,28.55
2023-05-21T02:31:48.407Z,28.54
2023-05-21T02:32:50.828Z,28.52
2023-05-21T02:33:52.884Z,28.53
2023-05-21T02:34:54.934Z,28.51
2023-05-21T02:35:56.973Z,28.52
2023-05-21T02:36:59.221Z,28.51
2023-05-21T02:38:03.175Z,28.51
2023-05-21T02:39:05.295Z,28.52
2023-05-21T02:40:10.166Z,28.51
2023-05-21T02:41:12.554Z,28.52
2023-05-21T02:42:14.522Z,28.52
2023-05-21T02:43:16.848Z,28.51
2023-05-21T02:44:19.307Z,28.51
2023-05-21T02:45:21.361Z,28.50
2023-05-21T02:46:23.312Z,28.50
2023-05-21T02:47:25.930Z,28.48
2023-05-21T02:48:28.247Z,28.48
2023-05-21T02:49:30.085Z,28.48
2023-05-21T02:50:32.105Z,28.48
2023-05-21T02:51:34.041Z,28.49
2023-05-21T02:52:35.939Z,28.50
2023-05-21T02:53:38.830Z,28.48
2023-05-21T02:54:40.968Z,28.48
2023-05-21T02:55:43.149Z,28.47
2023-05-21T02:56:45.241Z,28.48
2023-05-21T02:57:48.110Z,28.47
2023-05-21T02:58:50.006Z,28.46
2023-05-21T02:59:51.928Z,28.47
2023-05-21T03:00:53.979Z,28.46
2023-05-21T03:01:56.023Z,28.45
2023-05-21T03:02:57.874Z,28.47
2023-05-21T03:04:00.155Z,28.46
2023-05-21T03:05:02.819Z,28.46
2023-05-21T03:06:05.009Z,28.44
2023-05-21T03:07:06.928Z,28.44
2023-05-21T03:08:08.822Z,28.44
2023-05-21T03:09:10.961Z,28.43
2023-05-21T03:10:12.910Z,28.45
2023-05-21T03:11:14.920Z,28.43
2023-05-21T03:12:16.772Z,28.43
2023-05-21T03:13:18.692Z,28.44
2023-05-21T03:14:20.618Z,28.43
2023-05-21T03:15:24.459Z,28.42
2023-05-21T03:16:26.459Z,28.42
2023-05-21T03:17:28.315Z,28.44
2023-05-21T03:18:30.168Z,28.43
2023-05-21T03:19:35.885Z,28.41
2023-05-21T03:20:43.637Z,28.41
2023-05-21T03:21:45.644Z,28.42
2023-05-21T03:22:48.318Z,28.39
2023-05-21T03:23:51.702Z,28.40
2023-05-21T03:24:53.830Z,28.41
2023-05-21T03:25:55.708Z,28.40
2023-05-21T03:26:57.575Z,28.39
2023-05-21T03:27:59.702Z,28.39
2023-05-21T03:29:01.571Z,28.40
2023-05-21T03:30:06.026Z,28.41
2023-05-21T03:31:08.565Z,28.37
2023-05-21T03:32:10.772Z,28.40
2023-05-21T03:33:16.499Z,28.40
2023-05-21T03:34:20.092Z,28.38
2023-05-21T03:35:22.142Z,28.38
2023-05-21T03:36:24.000Z,28.37
2023-05-21T03:37:26.147Z,28.36
2023-05-21T03:38:28.273Z,28.36
2023-05-21T03:39:30.221Z,28.36
2023-05-21T03:40:32.066Z,28.37
2023-05-21T03:41:34.195Z,28.37
2023-05-21T03:42:36.194Z,28.35
2023-05-21T03:43:38.098Z,28.34
2023-05-21T03:44:40.046Z,28.34
2023-05-21T03:45:44.365Z,28.36
2023-05-21T03:46:46.542Z,28.36
2023-05-21T03:47:49.670Z,28.35
2023-05-21T03:48:51.808Z,28.33
2023-05-21T03:49:54.017Z,28.34
2023-05-21T03:50:56.161Z,28.36
2023-05-21T03:51:58.002Z,28.34
2023-05-21T03:52:59.954Z,28.33
2023-05-21T03:54:02.101Z,28.34
2023-05-21T03:55:04.329Z,28.34
2023-05-21T03:56:06.616Z,28.33
2023-05-21T03:57:08.565Z,28.34
2023-05-21T03:58:11.007Z,28.34
2023-05-21T03:59:12.918Z,28.32
2023-05-21T04:00:15.115Z,28.31
2023-05-21T04:01:17.835Z,28.33
2023-05-21T04:02:21.561Z,28.34
2023-05-21T04:03:23.616Z,28.32
2023-05-21T04:04:25.813Z,28.30
2023-05-21T04:05:27.733Z,28.30
2023-05-21T04:06:30.284Z,28.31
2023-05-21T04:07:32.371Z,28.32
2023-05-21T04:08:34.379Z,28.31
2023-05-21T04:09:36.839Z,28.29
2023-05-21T04:10:38.838Z,28.29
2023-05-21T04:11:40.804Z,28.29
2023-05-21T04:12:42.733Z,28.29
2023-05-21T04:13:44.658Z,28.29
2023-05-21T04:14:47.296Z,28.27
2023-05-21T04:15:49.497Z,28.30
2023-05-21T04:16:51.501Z,28.29
2023-05-21T04:17:54.671Z,28.28
2023-05-21T04:18:56.798Z,28.28
2023-05-21T04:19:59.008Z,28.29
2023-05-21T04:21:02.497Z,28.28
2023-05-21T04:22:05.211Z,28.27
2023-05-21T04:23:07.159Z,28.27
2023-05-21T04:24:08.954Z,28.27
2023-05-21T04:25:10.905Z,28.26
2023-05-21T04:26:13.189Z,28.28
2023-05-21T04:27:16.546Z,28.26
2023-05-21T04:28:21.323Z,28.28
2023-05-21T04:29:23.564Z,28.27
2023-05-21T04:30:25.639Z,28.27
2023-05-21T04:31:27.588Z,28.25
2023-05-21T04:32:31.114Z,28.25
2023-05-21T04:33:33.248Z,28.26
2023-05-21T04:34:35.168Z,28.26
2023-05-21T04:35:37.323Z,28.25
2023-05-21T04:36:39.446Z,28.27
2023-05-21T04:37:42.268Z,28.25
2023-05-21T04:38:44.410Z,28.26
2023-05-21T04:39:46.996Z,28.26
2023-05-21T04:40:52.778Z,28.26
2023-05-21T04:41:56.969Z,28.25
2023-05-21T04:43:00.787Z,28.24
2023-05-21T04:44:02.733Z,28.25
2023-05-21T04:45:05.199Z,28.23
2023-05-21T04:46:07.052Z,28.24
2023-05-21T04:47:08.952Z,28.25
2023-05-21T04:48:11.012Z,28.24
2023-05-21T04:49:12.831Z,28.25
2023-05-21T04:50:14.762Z,28.25
2023-05-21T04:51:16.686Z,28.24
2023-05-21T04:52:18.664Z,28.25
2023-05-21T04:53:21.006Z,28.24
2023-05-21T04:54:23.341Z,28.24
2023-05-21T04:55:25.923Z,28.25
2023-05-21T04:56:28.011Z,28.26
2023-05-21T04:57:29.902Z,28.25
2023-05-21T04:58:34.186Z,28.27
2023-05-21T04:59:36.325Z,28.26
2023-05-21T05:00:39.431Z,28.25
2023-05-21T05:01:43.920Z,28.24
2023-05-21T05:02:45.981Z,28.26
2023-05-21T05:03:47.918Z,28.26
2023-05-21T05:04:49.885Z,28.23
2023-05-21T05:05:51.944Z,28.24
2023-05-21T05:06:53.857Z,28.24
2023-05-21T05:07:56.267Z,28.24
2023-05-21T05:08:58.202Z,28.24
2023-05-21T05:10:00.372Z,28.23
2023-05-21T05:11:02.884Z,28.23
2023-05-21T05:12:05.723Z,28.22
2023-05-21T05:13:07.846Z,28.24
2023-05-21T05:14:09.783Z,28.24
2023-05-21T05:15:11.794Z,28.24
2023-05-21T05:16:17.361Z,28.24
2023-05-21T05:17:20.045Z,28.24
2023-05-21T05:18:21.957Z,28.26
2023-05-21T05:19:24.041Z,28.26
2023-05-21T05:20:25.955Z,28.24
2023-05-21T05:21:28.025Z,28.25
2023-05-21T05:22:29.989Z,28.23
2023-05-21T05:23:32.070Z,28.24
2023-05-21T05:24:34.052Z,28.24
2023-05-21T05:25:36.221Z,28.24
2023-05-21T05:26:38.221Z,28.24
2023-05-21T05:27:40.423Z,28.24
2023-05-21T05:28:42.229Z,28.26
2023-05-21T05:29:48.256Z,28.25
2023-05-21T05:30:50.200Z,28.25
2023-05-21T05:31:52.148Z,28.27
2023-05-21T05:32:54.043Z,28.26
2023-05-21T05:33:56.273Z,28.25
2023-05-21T05:34:59.137Z,28.25
2023-05-21T05:36:02.553Z,28.25
2023-05-21T05:37:05.349Z,28.26
2023-05-21T05:38:09.100Z,28.26
2023-05-21T05:39:11.234Z,28.25
2023-05-21T05:40:13.288Z,28.26
2023-05-21T05:41:15.278Z,28.25
2023-05-21T05:42:17.118Z,28.25
2023-05-21T05:43:19.152Z,28.25
2023-05-21T05:44:21.045Z,28.25
2023-05-21T05:45:23.055Z,28.25
2023-05-21T05:46:24.927Z,28.25
2023-05-21T05:47:26.857Z,28.26
2023-05-21T05:48:29.437Z,28.25
2023-05-21T05:49:31.301Z,28.25
2023-05-21T05:50:33.395Z,28.25
2023-05-21T05:51:35.312Z,28.26
2023-05-21T05:52:37.496Z,28.25
2023-05-21T05:53:39.652Z,28.25
2023-05-21T05:54:41.646Z,28.25
2023-05-21T05:55:43.862Z,28.25
2023-05-21T05:56:45.896Z,28.26
2023-05-21T05:57:47.962Z,28.27
2023-05-21T05:58:49.845Z,28.25
2023-05-21T05:59:51.775Z,28.27
2023-05-21T06:00:54.253Z,28.27
2023-05-21T06:01:56.135Z,28.26
2023-05-21T06:02:58.137Z,28.27
2023-05-21T06:04:00.289Z,28.27
2023-05-21T06:05:02.853Z,28.27
2023-05-21T06:06:04.810Z,28.27
2023-05-21T06:07:06.730Z,28.28
2023-05-21T06:08:08.600Z,28.27
2023-05-21T06:09:11.051Z,28.28
2023-05-21T06:10:13.040Z,28.28
2023-05-21T06:11:19.264Z,28.28
2023-05-21T06:12:21.301Z,28.28
2023-05-21T06:13:23.200Z,28.30
2023-05-21T06:14:25.010Z,28.30
2023-05-21T06:15:26.868Z,28.30
2023-05-21T06:16:31.501Z,28.29
2023-05-21T06:17:34.823Z,28.28
2023-05-21T06:18:37.530Z,28.29
2023-05-21T06:19:40.210Z,28.29
2023-05-21T06:20:42.199Z,28.29
2023-05-21T06:21:44.026Z,28.30
2023-05-21T06:22:46.011Z,28.29
2023-05-21T06:23:48.096Z,28.31
2023-05-21T06:24:50.030Z,28.30
2023-05-21T06:25:51.941Z,28.31
2023-05-21T06:26:53.826Z,28.31
2023-05-21T06:27:56.866Z,28.31
2023-05-21T06:28:59.027Z,28.31
2023-05-21T06:30:00.886Z,28.33
2023-05-21T06:31:02.834Z,28.32
2023-05-21T06:32:05.108Z,28.32
2023-05-21T06:33:07.198Z,28.33
2023-05-21T06:34:09.157Z,28.33
2023-05-21T06:35:11.547Z,28.34
2023-05-21T06:36:13.651Z,28.34
2023-05-21T06:37:21.490Z,28.36
2023-05-21T06:38:23.580Z,28.36
2023-05-21T06:39:27.093Z,28.34
2023-05-21T06:40:29.062Z,28.36
2023-05-21T06:41:31.082Z,28.36
2023-05-21T06:42:33.016Z,28.36
2023-05-21T06:43:34.990Z,28.36
2023-05-21T06:44:37.022Z,28.36
2023-05-21T06:45:39.708Z,28.36
2023-05-21T06:46:43.014Z,28.38
2023-05-21T06:47:44.975Z,28.39
2023-05-21T06:48:47.235Z,28.37
2023-05-21T06:49:49.320Z,28.38
2023-05-21T06:50:51.534Z,28.38
2023-05-21T06:51:53.425Z,28.39
2023-05-21T06:52:55.562Z,28.38
2023-05-21T06:53:57.389Z,28.39
2023-05-21T06:54:59.259Z,28.40
2023-05-21T06:56:01.363Z,28.40
2023-05-21T06:57:03.346Z,28.41
2023-05-21T06:58:06.615Z,28.41
2023-05-21T06:59:08.788Z,28.43
2023-05-21T07:00:12.181Z,28.40
2023-05-21T07:01:14.116Z,28.42
2023-05-21T07:02:17.023Z,28.40
2023-05-21T07:03:19.058Z,28.41
2023-05-21T07:04:21.034Z,28.42
2023-05-21T07:05:23.168Z,28.43
2023-05-21T07:06:25.280Z,28.45
2023-05-21T07:07:27.380Z,28.44
2023-05-21T07:08:29.588Z,28.44
2023-05-21T07:09:31.724Z,28.46
2023-05-21T07:10:33.647Z,28.47
2023-05-21T07:11:35.769Z,28.48
2023-05-21T07:12:37.627Z,28.47
2023-05-21T07:13:39.738Z,28.48
2023-05-21T07:14:41.914Z,28.48
2023-05-21T07:15:44.066Z,28.49
2023-05-21T07:16:46.018Z,28.49
2023-05-21T07:17:48.134Z,28.52
2023-05-21T07:18:50.264Z,28.50
2023-05-21T07:19:52.386Z,28.50
2023-05-21T07:20:54.236Z,28.52
2023-05-21T07:21:57.928Z,28.53
2023-05-21T07:22:59.935Z,28.54
2023-05-21T07:24:02.123Z,28.52
2023-05-21T07:25:04.954Z,28.53
2023-05-21T07:26:06.973Z,28.56
2023-05-21T07:27:24.281Z,28.55
2023-05-21T07:28:27.523Z,28.57
2023-05-21T07:29:29.345Z,28.55
2023-05-21T07:30:31.199Z,28.56
2023-05-21T07:31:33.176Z,28.58
2023-05-21T07:32:35.252Z,28.57
2023-05-21T07:33:37.184Z,28.58
2023-05-21T07:34:39.060Z,28.57
2023-05-21T07:35:41.035Z,28.58
2023-05-21T07:36:43.015Z,28.58
2023-05-21T07:37:44.949Z,28.59
2023-05-21T07:38:46.829Z,28.59
2023-05-21T07:39:48.678Z,28.59
2023-05-21T07:40:50.496Z,28.59
2023-05-21T07:41:52.424Z,28.61
2023-05-21T07:42:54.696Z,28.62
2023-05-21T07:43:56.631Z,28.59
2023-05-21T07:44:58.492Z,28.62
2023-05-21T07:46:00.538Z,28.63
2023-05-21T07:47:02.570Z,28.63
2023-05-21T07:48:04.684Z,28.62
2023-05-21T07:49:06.900Z,28.65
2023-05-21T07:50:09.519Z,28.65
2023-05-21T07:51:12.159Z,28.65
2023-05-21T07:52:14.010Z,28.65
2023-05-21T07:53:17.529Z,28.66
2023-05-21T07:54:19.783Z,28.67
2023-05-21T07:55:21.806Z,28.68
2023-05-21T07:56:23.763Z,28.67
2023-05-21T07:57:26.172Z,28.69
2023-05-21T07:58:28.138Z,28.71
2023-05-21T07:59:30.068Z,28.70
2023-05-21T08:00:47.638Z,28.72
2023-05-21T08:01:49.641Z,28.71
2023-05-21T08:02:52.572Z,28.70
2023-05-21T08:03:54.812Z,28.73
2023-05-21T08:04:57.989Z,28.75
2023-05-21T08:05:59.986Z,28.75
2023-05-21T08:07:01.958Z,28.74
2023-05-21T08:08:05.546Z,28.72
2023-05-21T08:09:08.067Z,28.73
2023-05-21T08:10:10.197Z,28.71
2023-05-21T08:11:12.018Z,28.69
2023-05-21T08:12:16.585Z,28.69
2023-05-21T08:13:18.530Z,28.67
2023-05-21T08:14:20.361Z,28.68
2023-05-21T08:15:22.770Z,28.64
2023-05-21T08:16:24.816Z,28.63
2023-05-21T08:17:28.468Z,28.62
2023-05-21T08:18:30.664Z,28.59
2023-05-21T08:19:33.006Z,28.57
2023-05-21T08:20:35.111Z,28.55
2023-05-21T08:21:37.311Z,28.56
2023-05-21T08:22:39.464Z,28.55
2023-05-21T08:23:41.293Z,28.52
2023-05-21T08:24:43.364Z,28.54
2023-05-21T08:25:45.245Z,28.53
2023-05-21T08:26:48.545Z,28.51
2023-05-21T08:27:52.344Z,28.50
2023-05-21T08:28:54.651Z,28.51
2023-05-21T08:29:56.608Z,28.51
2023-05-21T08:30:58.757Z,28.48
2023-05-21T08:32:01.016Z,28.49
2023-05-21T08:33:02.939Z,28.48
2023-05-21T08:34:04.852Z,28.47
2023-05-21T08:35:08.706Z,28.46
2023-05-21T08:36:10.673Z,28.45
2023-05-21T08:37:12.530Z,28.45
2023-05-21T08:38:16.892Z,28.46
2023-05-21T08:39:18.770Z,28.44
2023-05-21T08:40:20.978Z,28.42
2023-05-21T08:41:24.598Z,28.42
2023-05-21T08:42:47.300Z,28.43
2023-05-21T08:43:58.356Z,28.40
2023-05-21T08:45:01.190Z,28.41
2023-05-21T08:46:05.011Z,28.41
2023-05-21T08:47:13.131Z,28.42
2023-05-21T08:48:17.841Z,28.42
2023-05-21T08:49:28.661Z,28.42
2023-05-21T08:50:32.797Z,28.41
2023-05-21T08:51:34.974Z,28.42
2023-05-21T08:52:37.403Z,28.41
2023-05-21T08:53:39.343Z,28.42
2023-05-21T08:54:42.058Z,28.42
2023-05-21T08:55:44.770Z,28.45
2023-05-21T08:56:49.932Z,28.45
2023-05-21T08:57:55.054Z,28.47
2023-05-21T08:58:58.721Z,28.47
2023-05-21T09:00:02.027Z,28.49
2023-05-21T09:01:05.391Z,28.49
2023-05-21T09:02:08.854Z,28.51
2023-05-21T09:03:13.737Z,28.51
2023-05-21T09:04:21.284Z,28.53
2023-05-21T09:05:25.236Z,28.55
2023-05-21T09:06:27.756Z,28.56
2023-05-21T09:07:31.768Z,28.56
2023-05-21T09:08:39.051Z,28.58
2023-05-21T09:09:54.163Z,28.61
2023-05-21T09:10:56.158Z,28.63
2023-05-21T09:11:58.018Z,28.63
2023-05-21T09:13:00.850Z,28.61
2023-05-21T09:14:04.062Z,28.64
2023-05-21T09:15:07.638Z,28.67
2023-05-21T09:16:11.019Z,28.65
2023-05-21T09:17:15.480Z,28.68
2023-05-21T09:18:17.511Z,28.70
2023-05-21T09:19:23.004Z,28.70
2023-05-21T09:20:26.858Z,28.71
2023-05-21T09:21:31.421Z,28.73
2023-05-21T09:22:33.697Z,28.73
2023-05-21T09:23:35.670Z,28.74
2023-05-21T09:24:37.549Z,28.75
2023-05-21T09:25:40.007Z,28.75
2023-05-21T09:26:45.128Z,28.78
2023-05-21T09:27:47.211Z,28.78
2023-05-21T09:28:49.155Z,28.78
2023-05-21T09:29:51.373Z,28.79
2023-05-21T09:30:56.169Z,28.81
2023-05-21T09:31:59.305Z,28.82
2023-05-21T09:33:01.710Z,28.82
2023-05-21T09:34:03.806Z,28.84
2023-05-21T09:35:10.782Z,28.85
2023-05-21T09:36:13.097Z,28.86
2023-05-21T09:37:26.530Z,28.85
2023-05-21T09:38:30.299Z,28.89
2023-05-21T09:39:32.093Z,28.89
2023-05-21T09:40:36.026Z,28.90
2023-05-21T09:41:38.603Z,28.90
2023-05-21T09:42:41.907Z,28.91
2023-05-21T09:43:44.769Z,28.92
2023-05-21T09:44:48.107Z,28.91
2023-05-21T09:45:55.425Z,28.94
2023-05-21T09:46:59.636Z,28.94
2023-05-21T09:48:01.675Z,28.95
2023-05-21T09:49:03.567Z,28.96
2023-05-21T09:50:06.642Z,28.96
2023-05-21T09:51:19.839Z,28.97
2023-05-21T09:52:28.516Z,28.99
2023-05-21T09:53:30.409Z,28.99
2023-05-21T09:54:34.295Z,28.98
2023-05-21T09:55:36.691Z,28.98
2023-05-21T09:56:40.466Z,28.99
2023-05-21T09:57:43.591Z,29.01
2023-05-21T09:58:46.281Z,29.02
2023-05-21T09:59:50.899Z,29.03
2023-05-21T10:00:53.547Z,29.02
2023-05-21T10:01:55.628Z,29.05
2023-05-21T10:03:01.571Z,29.07
2023-05-21T10:04:08.405Z,29.08
2023-05-21T10:05:14.615Z,29.09
2023-05-21T10:06:19.152Z,29.07
2023-05-21T10:07:26.405Z,29.09
2023-05-21T10:08:35.977Z,29.11
2023-05-21T10:09:38.960Z,29.10
2023-05-21T10:10:43.721Z,29.11
2023-05-21T10:11:49.631Z,29.13
2023-05-21T10:13:09.317Z,29.16
2023-05-21T10:14:22.509Z,29.16
2023-05-21T10:15:26.379Z,29.16
2023-05-21T10:16:32.785Z,29.16
2023-05-21T10:17:35.558Z,29.17
2023-05-21T10:18:40.017Z,29.18
2023-05-21T10:19:43.875Z,29.21
2023-05-21T10:20:46.725Z,29.19
2023-05-21T10:21:51.949Z,29.21
2023-05-21T10:22:55.869Z,29.21
2023-05-21T10:23:58.559Z,29.22
2023-05-21T10:25:03.683Z,29.23
2023-05-21T10:26:08.195Z,29.24
2023-05-21T10:27:11.681Z,29.22
2023-05-21T10:28:18.279Z,29.25
2023-05-21T10:29:22.945Z,29.27
2023-05-21T10:30:25.643Z,29.26
2023-05-21T10:31:28.590Z,29.25
2023-05-21T10:32:32.185Z,29.28
2023-05-21T10:33:36.528Z,29.28
2023-05-21T10:34:38.965Z,29.28
2023-05-21T10:35:41.174Z,29.31
2023-05-21T10:36:44.971Z,29.30
2023-05-21T10:37:47.167Z,29.31
2023-05-21T10:38:49.228Z,29.31
2023-05-21T10:39:52.349Z,29.34
2023-05-21T10:40:55.808Z,29.34
2023-05-21T10:42:38.179Z,29.40
2023-05-21T10:44:26.685Z,29.42
2023-05-21T10:46:05.761Z,29.43
2023-05-21T10:47:58.854Z,29.44
2023-05-21T10:49:50.982Z,29.43
2023-05-21T10:51:36.975Z,29.39
2023-05-21T10:53:17.121Z,29.44
2023-05-21T10:55:14.749Z,29.42
2023-05-21T10:56:46.697Z,29.38
2023-05-21T10:58:15.185Z,29.39
2023-05-21T10:59:46.728Z,29.39
2023-05-21T11:00:50.094Z,29.36
2023-05-21T11:01:53.196Z,29.34
2023-05-21T11:02:56.029Z,29.35
2023-05-21T11:03:58.326Z,29.35
2023-05-21T11:05:02.080Z,29.35
2023-05-21T11:06:06.592Z,29.38
2023-05-21T11:07:09.150Z,29.38
2023-05-21T11:08:31.666Z,29.42
2023-05-21T11:09:33.841Z,29.42
2023-05-21T11:10:41.094Z,29.41
2023-05-21T11:12:00.281Z,29.42
2023-05-21T11:13:19.844Z,29.46
2023-05-21T11:14:39.566Z,29.47
2023-05-21T11:16:05.262Z,29.48
2023-05-21T11:17:10.291Z,29.47
2023-05-21T11:18:14.420Z,29.44
2023-05-21T11:19:20.073Z,29.46
2023-05-21T11:20:34.603Z,29.47
2023-05-21T11:21:36.729Z,29.47
2023-05-21T11:22:38.851Z,29.49
2023-05-21T11:24:01.328Z,29.52
2023-05-21T11:25:04.084Z,29.50
2023-05-21T11:26:07.242Z,29.50
2023-05-21T11:27:09.711Z,29.51
2023-05-21T11:28:11.567Z,29.52
2023-05-21T11:29:14.642Z,29.53
2023-05-21T11:30:19.619Z,29.52
2023-05-21T11:31:30.387Z,29.54
2023-05-21T11:32:32.396Z,29.55
2023-05-21T11:33:34.354Z,29.55
2023-05-21T11:34:48.939Z,29.57
2023-05-21T11:35:54.355Z,29.56
2023-05-21T11:37:23.355Z,29.59
2023-05-21T11:38:31.128Z,29.58
2023-05-21T11:39:40.342Z,29.57
2023-05-21T11:40:55.189Z,29.60
2023-05-21T11:42:01.731Z,29.59
2023-05-21T11:43:06.189Z,29.58
2023-05-21T11:44:09.242Z,29.57
2023-05-21T11:45:11.363Z,29.58
2023-05-21T11:46:15.011Z,29.58
2023-05-21T11:47:19.065Z,29.59
2023-05-21T11:48:27.364Z,29.61
2023-05-21T11:49:31.559Z,29.61
2023-05-21T11:50:34.747Z,29.63
2023-05-21T11:51:37.178Z,29.62
2023-05-21T11:52:40.490Z,29.64
2023-05-21T11:53:44.326Z,29.64
2023-05-21T11:54:55.625Z,29.67
2023-05-21T11:56:00.073Z,29.66
2023-05-21T11:57:06.011Z,29.67
2023-05-21T11:58:09.273Z,29.68
2023-05-21T11:59:17.995Z,29.70
2023-05-21T12:00:21.610Z,29.68
2023-05-21T12:01:24.937Z,29.67
2023-05-21T12:02:32.112Z,29.69
2023-05-21T12:03:37.364Z,29.70
2023-05-21T12:04:39.430Z,29.70
2023-05-21T12:05:49.045Z,29.70
2023-05-21T12:06:51.949Z,29.71
2023-05-21T12:07:54.972Z,29.72
2023-05-21T12:08:58.266Z,29.72
2023-05-21T12:10:01.330Z,29.73
2023-05-21T12:11:03.357Z,29.74
2023-05-21T12:12:06.548Z,29.75
2023-05-21T12:13:08.719Z,29.74
2023-05-21T12:14:11.393Z,29.74
2023-05-21T12:15:13.844Z,29.77
2023-05-21T12:16:15.862Z,29.78
2023-05-21T12:17:20.258Z,29.78
2023-05-21T12:18:22.537Z,29.79
2023-05-21T12:19:24.659Z,29.78
2023-05-21T12:20:28.438Z,29.79
2023-05-21T12:21:31.537Z,29.80
2023-05-21T12:22:33.392Z,29.80
2023-05-21T12:23:36.363Z,29.81
2023-05-21T12:24:39.453Z,29.84
2023-05-21T12:25:41.828Z,29.84
2023-05-21T12:26:48.139Z,29.84
2023-05-21T12:27:57.911Z,29.86
2023-05-21T12:29:00.181Z,29.84
2023-05-21T12:30:02.347Z,29.86
2023-05-21T12:31:04.405Z,29.86
2023-05-21T12:32:09.948Z,29.87
2023-05-21T12:33:12.182Z,29.88
2023-05-21T12:34:15.551Z,29.86
2023-05-21T12:35:23.070Z,29.89
2023-05-21T12:36:34.267Z,29.89
2023-05-21T12:37:36.226Z,29.88
2023-05-21T12:38:38.112Z,29.89
2023-05-21T12:39:45.394Z,29.90
2023-05-21T12:40:47.432Z,29.89
2023-05-21T12:41:54.632Z,29.91
2023-05-21T12:42:56.695Z,29.91
2023-05-21T12:43:58.717Z,29.91
2023-05-21T12:45:06.307Z,29.91
2023-05-21T12:46:08.398Z,29.93
2023-05-21T12:47:11.875Z,29.93
2023-05-21T12:48:13.817Z,29.94
2023-05-21T12:49:48.037Z,29.98
2023-05-21T12:50:52.154Z,29.95
2023-05-21T12:51:56.987Z,29.93
2023-05-21T12:52:59.209Z,29.95
2023-05-21T12:54:02.222Z,29.96
2023-05-21T12:55:06.557Z,29.98
2023-05-21T12:56:15.953Z,29.98
2023-05-21T12:57:23.525Z,30.00
2023-05-21T12:58:25.601Z,29.98
2023-05-21T12:59:27.588Z,29.98
2023-05-21T13:00:29.616Z,30.00
2023-05-21T13:01:31.604Z,30.00
2023-05-21T13:02:40.784Z,30.02
2023-05-21T13:03:43.255Z,30.02
2023-05-21T13:04:45.484Z,30.03
2023-05-21T13:05:47.844Z,30.05
2023-05-21T13:06:50.096Z,30.04
2023-05-21T13:07:52.085Z,30.06
2023-05-21T13:08:55.752Z,30.04
2023-05-21T13:09:58.919Z,30.05
2023-05-21T13:11:04.785Z,30.06
2023-05-21T13:12:07.007Z,30.08
2023-05-21T13:13:09.076Z,30.09
2023-05-21T13:14:11.126Z,30.09
2023-05-21T13:15:13.214Z,30.11
2023-05-21T13:16:15.389Z,30.09
2023-05-21T13:17:18.691Z,30.09
2023-05-21T13:18:21.743Z,30.09
2023-05-21T13:19:23.665Z,30.09
2023-05-21T13:20:27.860Z,30.10
2023-05-21T13:21:29.817Z,30.11
2023-05-21T13:22:31.968Z,30.11
2023-05-21T13:23:33.843Z,30.14
2023-05-21T13:24:37.022Z,30.11
2023-05-21T13:25:39.252Z,30.13
2023-05-21T13:26:41.448Z,30.14
2023-05-21T13:27:44.636Z,30.13
2023-05-21T13:28:46.766Z,30.12
2023-05-21T13:29:48.632Z,30.12
2023-05-21T13:30:53.099Z,30.13
2023-05-21T13:31:54.919Z,30.15
2023-05-21T13:32:56.844Z,30.14
2023-05-21T13:33:58.758Z,30.15
2023-05-21T13:35:01.118Z,30.16
2023-05-21T13:36:04.329Z,30.17
2023-05-21T13:37:06.752Z,30.16
2023-05-21T13:38:08.571Z,30.18
2023-05-21T13:39:10.641Z,30.19
2023-05-21T13:40:15.643Z,30.18
2023-05-21T13:41:17.884Z,30.20
2023-05-21T13:42:21.296Z,30.18
2023-05-21T13:43:23.324Z,30.19
2023-05-21T13:44:25.250Z,30.20
2023-05-21T13:45:29.249Z,30.21